createdAt,value
2023-04-30T00:00:52.065Z,5.80
2023-04-30T00:03:24.171Z,5.90
2023-04-30T00:05:54.063Z,5.80
2023-04-30T00:08:26.078Z,5.20
2023-04-30T00:10:56.043Z,6.60
2023-04-30T00:13:27.028Z,6.30
2023-04-30T00:16:04.046Z,6.50
2023-04-30T00:18:41.019Z,6.60
2023-04-30T00:21:11.599Z,6.00
2023-04-30T00:23:43.005Z,5.50
2023-04-30T00:26:14.040Z,6.40
2023-04-30T00:28:47.010Z,7.70
2023-04-30T00:31:17.989Z,6.30
2023-04-30T00:33:48.424Z,7.70
2023-04-30T00:36:23.186Z,7.30
2023-04-30T00:38:53.267Z,8.30
2023-04-30T00:41:23.022Z,7.90
2023-04-30T00:54:13.864Z,7.10
2023-04-30T00:56:41.215Z,7.20
2023-04-30T00:59:08.669Z,7.20
2023-04-30T01:01:39.128Z,9.10
2023-04-30T01:04:06.254Z,9.40
2023-04-30T01:06:34.582Z,10.80
2023-04-30T01:09:02.124Z,11.30
2023-04-30T01:11:50.786Z,9.10
2023-04-30T01:14:23.878Z,7.80
2023-04-30T01:17:00.800Z,7.60
2023-04-30T01:19:44.803Z,7.10
2023-04-30T01:22:35.849Z,7.20
2023-04-30T01:25:31.172Z,6.20
2023-04-30T01:28:06.314Z,6.70
2023-04-30T01:30:33.797Z,6.50
2023-04-30T01:33:01.077Z,6.80
2023-04-30T01:35:56.297Z,6.00
2023-04-30T01:38:30.631Z,6.10
2023-04-30T01:41:40.759Z,6.60
2023-04-30T01:46:41.443Z,9.80
2023-04-30T01:49:28.928Z,5.90
2023-04-30T01:52:03.428Z,6.50
2023-04-30T01:54:36.023Z,6.30
2023-04-30T01:57:05.459Z,6.80
2023-04-30T01:59:34.810Z,5.80
2023-04-30T02:02:02.131Z,7.50
2023-04-30T02:04:29.456Z,6.90
2023-04-30T02:06:58.663Z,6.60
2023-04-30T02:09:25.719Z,6.90
2023-04-30T02:11:53.131Z,5.90
2023-04-30T02:14:20.641Z,5.50
2023-04-30T02:16:47.936Z,5.30
2023-04-30T02:19:15.580Z,7.30
2023-04-30T02:21:42.729Z,6.80
2023-04-30T02:24:09.745Z,8.70
2023-04-30T02:26:36.815Z,5.60
2023-04-30T02:29:03.818Z,4.90
2023-04-30T02:31:33.554Z,5.90
2023-04-30T02:34:09.127Z,6.20
2023-04-30T02:36:36.720Z,5.60
2023-04-30T02:39:04.686Z,5.60
2023-04-30T02:41:31.680Z,6.00
2023-04-30T02:43:59.412Z,5.20
2023-04-30T02:46:27.000Z,4.60
2023-04-30T02:48:54.043Z,4.40
2023-04-30T02:51:21.176Z,4.00
2023-04-30T02:53:48.171Z,4.80
2023-04-30T02:56:15.321Z,4.60
2023-04-30T02:58:42.302Z,4.90
2023-04-30T03:01:13.452Z,6.50
2023-04-30T03:03:40.701Z,6.50
2023-04-30T03:06:07.707Z,6.60
2023-04-30T03:08:34.960Z,5.40
2023-04-30T03:11:03.074Z,5.50
2023-04-30T03:13:30.317Z,5.10
2023-04-30T03:16:02.187Z,4.80
2023-04-30T03:18:30.057Z,5.70
2023-04-30T03:20:57.619Z,5.10
2023-04-30T03:23:26.870Z,5.90
2023-04-30T03:25:53.877Z,5.90
2023-04-30T03:28:22.871Z,5.60
2023-04-30T03:30:50.179Z,7.00
2023-04-30T03:33:17.695Z,6.30
2023-04-30T03:35:44.873Z,6.90
2023-04-30T03:38:11.842Z,5.50
2023-04-30T03:40:38.901Z,7.30
2023-04-30T03:43:05.956Z,6.00
2023-04-30T03:45:33.240Z,7.80
2023-04-30T03:48:00.203Z,6.40
2023-04-30T03:50:27.277Z,6.40
2023-04-30T03:52:54.331Z,6.90
2023-04-30T03:55:21.808Z,7.70
2023-04-30T03:57:48.804Z,9.80
2023-04-30T04:00:17.117Z,8.30
2023-04-30T04:02:47.493Z,6.80
2023-04-30T04:05:15.778Z,7.60
2023-04-30T04:07:45.374Z,6.50
2023-04-30T04:10:12.528Z,9.90
2023-04-30T04:12:41.089Z,7.30
2023-04-30T04:15:09.093Z,8.30
2023-04-30T04:17:36.931Z,6.80
2023-04-30T04:20:05.984Z,6.30
2023-04-30T04:22:35.510Z,5.20
2023-04-30T04:25:02.588Z,5.30
2023-04-30T04:27:30.461Z,7.00
2023-04-30T04:29:57.565Z,5.60
2023-04-30T04:32:24.555Z,6.10
2023-04-30T04:34:53.876Z,5.40
2023-04-30T04:37:21.272Z,7.10
2023-04-30T04:39:48.661Z,5.10
2023-04-30T04:42:17.707Z,5.70
2023-04-30T04:44:45.088Z,4.20
2023-04-30T04:47:12.432Z,5.40
2023-04-30T04:49:39.523Z,6.00
2023-04-30T04:52:07.756Z,9.10
2023-04-30T04:54:34.865Z,3.20
2023-04-30T04:57:02.703Z,3.80
2023-04-30T04:59:29.756Z,5.50
2023-04-30T05:01:56.839Z,3.10
2023-04-30T05:04:27.398Z,2.90
2023-04-30T05:06:54.493Z,3.00
2023-04-30T05:09:21.971Z,3.20
2023-04-30T05:11:49.005Z,2.80
2023-04-30T05:14:16.831Z,2.50
2023-04-30T05:16:45.124Z,3.40
2023-04-30T05:19:12.607Z,2.50
2023-04-30T05:21:40.929Z,3.60
2023-04-30T05:24:08.031Z,3.10
2023-04-30T05:26:35.898Z,2.00
2023-04-30T05:29:02.989Z,3.60
2023-04-30T05:31:31.972Z,2.50
2023-04-30T05:33:59.289Z,2.60
2023-04-30T05:36:26.399Z,2.60
2023-04-30T05:38:53.383Z,2.20
2023-04-30T05:41:20.908Z,2.40
2023-04-30T05:43:52.369Z,3.00
2023-04-30T05:46:21.609Z,2.30
2023-04-30T05:48:49.741Z,2.70
2023-04-30T05:51:18.118Z,2.70
2023-04-30T05:53:47.377Z,4.20
2023-04-30T05:56:19.308Z,3.10
2023-04-30T05:58:46.614Z,4.60
2023-04-30T06:01:13.777Z,4.40
2023-04-30T06:03:40.902Z,4.00
2023-04-30T06:06:08.377Z,8.60
2023-04-30T06:08:35.784Z,7.50
2023-04-30T06:11:04.637Z,7.20
2023-04-30T06:13:32.014Z,9.60
2023-04-30T06:15:59.008Z,6.10
2023-04-30T06:18:25.981Z,10.20
2023-04-30T06:20:53.110Z,10.30
2023-04-30T06:23:20.379Z,9.90
2023-04-30T06:25:47.320Z,10.90
2023-04-30T06:28:14.377Z,10.00
2023-04-30T06:30:41.390Z,9.40
2023-04-30T06:33:09.339Z,7.90
2023-04-30T06:35:36.717Z,5.60
2023-04-30T06:38:03.840Z,5.00
2023-04-30T06:40:30.855Z,7.30
2023-04-30T06:42:58.984Z,8.20
2023-04-30T06:45:26.448Z,6.90
2023-04-30T06:47:53.585Z,6.90
2023-04-30T06:50:21.765Z,5.20
2023-04-30T06:52:48.916Z,7.40
2023-04-30T06:55:16.477Z,7.10
2023-04-30T06:57:46.228Z,6.70
2023-04-30T07:00:16.518Z,5.60
2023-04-30T07:02:44.125Z,5.30
2023-04-30T07:05:11.643Z,5.30
2023-04-30T07:07:38.992Z,6.10
2023-04-30T07:10:07.296Z,4.80
2023-04-30T07:12:34.425Z,7.50
2023-04-30T07:15:03.319Z,4.50
2023-04-30T07:17:31.274Z,8.40
2023-04-30T07:19:59.100Z,6.80
2023-04-30T07:22:27.641Z,6.30
2023-04-30T07:24:55.179Z,6.50
2023-04-30T07:27:22.517Z,7.40
2023-04-30T07:29:49.820Z,8.70
2023-04-30T07:32:17.104Z,10.10
2023-04-30T07:34:44.208Z,9.30
2023-04-30T07:37:11.406Z,7.90
2023-04-30T07:39:38.784Z,8.30
2023-04-30T07:42:06.248Z,12.00
2023-04-30T07:44:33.717Z,13.10
2023-04-30T07:47:01.269Z,9.50
2023-04-30T07:49:28.495Z,10.50
2023-04-30T07:51:56.499Z,8.50
2023-04-30T07:54:23.798Z,8.10
2023-04-30T07:56:50.975Z,9.70
2023-04-30T07:59:18.605Z,7.20
2023-04-30T08:01:49.410Z,8.80
2023-04-30T08:04:16.708Z,7.40
2023-04-30T08:06:44.343Z,9.80
2023-04-30T08:09:15.224Z,8.60
2023-04-30T08:11:42.297Z,11.40
2023-04-30T08:14:09.551Z,13.70
2023-04-30T08:16:36.876Z,15.30
2023-04-30T08:19:04.865Z,12.20
2023-04-30T08:21:33.487Z,10.90
2023-04-30T08:24:00.859Z,10.00
2023-04-30T08:26:30.829Z,12.00
2023-04-30T08:28:58.090Z,6.00
2023-04-30T08:31:25.760Z,5.60
2023-04-30T08:33:53.960Z,4.10
2023-04-30T08:36:21.263Z,6.70
2023-04-30T08:38:50.729Z,4.80
2023-04-30T08:41:19.172Z,10.00
2023-04-30T08:43:47.066Z,9.20
2023-04-30T08:46:16.576Z,10.00
2023-04-30T08:48:44.355Z,12.60
2023-04-30T08:51:12.170Z,16.10
2023-04-30T08:53:39.773Z,13.00
2023-04-30T08:56:10.016Z,9.60
2023-04-30T08:58:39.144Z,9.40
2023-04-30T09:01:08.088Z,11.20
2023-04-30T09:03:35.319Z,12.80
2023-04-30T09:06:02.899Z,7.80
2023-04-30T09:08:49.125Z,6.40
2023-04-30T09:11:30.119Z,5.80
2023-04-30T09:13:58.333Z,9.80
2023-04-30T09:16:26.966Z,7.70
2023-04-30T09:18:54.175Z,7.90
2023-04-30T09:21:32.927Z,5.60
2023-04-30T09:24:04.784Z,6.60
2023-04-30T09:26:39.590Z,9.40
2023-04-30T09:29:10.954Z,5.50
2023-04-30T09:31:42.825Z,6.20
2023-04-30T09:34:11.815Z,5.40
2023-04-30T09:36:59.771Z,4.50
2023-04-30T09:39:28.498Z,4.90
2023-04-30T09:42:09.632Z,5.20
2023-04-30T09:44:38.546Z,4.50
2023-04-30T09:47:13.037Z,5.70
2023-04-30T09:49:45.215Z,4.40
2023-04-30T09:52:12.300Z,4.50
2023-04-30T09:54:40.995Z,5.70
2023-04-30T09:57:13.932Z,3.80
2023-04-30T09:59:47.650Z,4.70
2023-04-30T10:02:16.772Z,4.10
2023-04-30T10:04:45.310Z,5.20
2023-04-30T10:07:16.070Z,6.00
2023-04-30T10:09:50.575Z,5.50
2023-04-30T10:12:38.469Z,5.90
2023-04-30T10:15:21.451Z,7.40
2023-04-30T10:17:52.213Z,5.90
2023-04-30T10:20:19.352Z,6.10
2023-04-30T10:22:47.699Z,6.20
2023-04-30T10:25:16.309Z,5.60
2023-04-30T10:27:43.389Z,6.00
2023-04-30T10:30:12.015Z,4.90
2023-04-30T10:32:51.327Z,6.80
2023-04-30T10:35:27.512Z,6.90
2023-04-30T10:38:21.346Z,8.70
2023-04-30T10:40:50.218Z,9.00
2023-04-30T10:43:22.129Z,10.30
2023-04-30T10:45:50.043Z,10.00
2023-04-30T10:48:24.693Z,11.10
2023-04-30T10:50:58.521Z,14.10
2023-04-30T10:53:27.591Z,15.10
2023-04-30T10:56:05.847Z,16.40
2023-04-30T10:58:34.212Z,19.50
2023-04-30T11:01:07.979Z,14.90
2023-04-30T11:03:36.034Z,14.50
2023-04-30T11:06:13.236Z,11.70
2023-04-30T11:08:43.977Z,11.50
2023-04-30T11:11:11.222Z,11.60
2023-04-30T11:13:45.879Z,9.50
2023-04-30T11:16:15.545Z,8.90
2023-04-30T11:18:46.658Z,9.40
2023-04-30T11:21:13.836Z,9.80
2023-04-30T11:23:45.178Z,12.50
2023-04-30T11:26:12.494Z,10.60
2023-04-30T11:28:46.866Z,9.20
2023-04-30T11:31:15.379Z,8.10
2023-04-30T11:33:43.339Z,7.90
2023-04-30T11:36:10.830Z,8.10
2023-04-30T11:38:39.518Z,9.80
2023-04-30T11:41:06.716Z,7.90
2023-04-30T11:43:34.755Z,8.60
2023-04-30T11:46:12.705Z,8.40
2023-04-30T11:48:44.214Z,11.40
2023-04-30T11:51:18.871Z,9.40
2023-04-30T11:53:46.873Z,8.30
2023-04-30T11:56:14.084Z,9.00
2023-04-30T11:58:41.490Z,9.50
2023-04-30T12:01:10.550Z,11.10
2023-04-30T12:03:42.690Z,13.40
2023-04-30T12:06:11.647Z,13.30
2023-04-30T12:08:41.055Z,9.00
2023-04-30T12:11:23.093Z,7.20
2023-04-30T12:13:55.386Z,7.20
2023-04-30T12:16:24.833Z,8.70
2023-04-30T12:18:53.280Z,10.40
2023-04-30T12:21:22.486Z,12.00
2023-04-30T12:23:51.580Z,11.60
2023-04-30T12:26:18.872Z,9.10
2023-04-30T12:28:49.941Z,7.40
2023-04-30T12:31:17.974Z,4.80
2023-04-30T12:33:54.474Z,4.90
2023-04-30T12:36:21.840Z,6.60
2023-04-30T12:38:49.730Z,7.30
2023-04-30T12:41:18.870Z,7.70
2023-04-30T12:43:49.723Z,7.60
2023-04-30T12:46:27.360Z,8.90
2023-04-30T12:48:56.314Z,8.80
2023-04-30T12:51:23.768Z,12.30
2023-04-30T12:53:51.153Z,8.70
2023-04-30T12:56:20.377Z,6.40
2023-04-30T12:59:04.607Z,8.30
2023-04-30T13:01:46.093Z,5.40
2023-04-30T13:04:13.921Z,5.10
2023-04-30T13:06:42.122Z,5.80
2023-04-30T13:09:10.831Z,8.90
2023-04-30T13:11:38.494Z,11.30
2023-04-30T13:14:06.109Z,11.40
2023-04-30T13:16:34.752Z,13.30
2023-04-30T13:19:02.630Z,16.10
2023-04-30T13:21:32.382Z,13.60
2023-04-30T13:24:01.425Z,11.80
2023-04-30T13:26:29.895Z,9.30
2023-04-30T13:28:57.899Z,7.10
2023-04-30T13:31:25.423Z,7.70
2023-04-30T13:33:54.434Z,9.70
2023-04-30T13:36:23.223Z,9.70
2023-04-30T13:38:52.738Z,13.40
2023-04-30T13:41:22.073Z,14.10
2023-04-30T13:43:50.516Z,18.40
2023-04-30T13:46:17.960Z,20.70
2023-04-30T13:48:49.574Z,22.70
2023-04-30T13:51:21.649Z,19.00
2023-04-30T13:53:52.590Z,10.40
2023-04-30T13:56:25.295Z,5.80
2023-04-30T13:58:54.710Z,4.20
2023-04-30T14:01:28.322Z,3.20
2023-04-30T14:04:00.266Z,4.50
2023-04-30T14:08:58.608Z,2.30
2023-04-30T14:11:29.107Z,3.10
2023-04-30T14:13:57.979Z,4.40
2023-04-30T14:16:25.448Z,3.20
2023-04-30T14:18:53.103Z,3.80
2023-04-30T14:21:21.438Z,3.30
2023-04-30T14:23:49.774Z,3.70
2023-04-30T14:26:17.920Z,4.30
2023-04-30T14:28:45.191Z,5.70
2023-04-30T14:31:33.319Z,5.60
2023-04-30T14:34:01.213Z,3.40
2023-04-30T14:36:30.437Z,3.60
2023-04-30T14:38:58.134Z,4.30
2023-04-30T14:41:28.473Z,3.20
2023-04-30T14:46:23.861Z,2.60
2023-04-30T14:48:51.783Z,1.60
2023-04-30T14:51:19.272Z,2.40
2023-04-30T14:53:46.607Z,1.60
2023-04-30T14:56:14.385Z,1.60
2023-04-30T14:58:42.002Z,1.60
2023-04-30T15:01:10.060Z,2.60
2023-04-30T15:03:38.293Z,1.60
2023-04-30T15:06:10.604Z,2.20
2023-04-30T15:08:44.309Z,3.50
2023-04-30T15:11:12.763Z,2.90
2023-04-30T15:13:42.184Z,1.30
2023-04-30T15:16:11.431Z,1.20
2023-04-30T15:18:40.579Z,1.70
2023-04-30T15:21:08.536Z,1.70
2023-04-30T15:23:41.001Z,1.40
2023-04-30T15:26:08.631Z,2.20
2023-04-30T15:28:37.188Z,2.60
2023-04-30T15:31:07.166Z,4.70
2023-04-30T15:33:41.443Z,3.70
2023-04-30T15:36:10.119Z,2.80
2023-04-30T15:38:39.033Z,3.00
2023-04-30T15:41:06.193Z,2.00
2023-04-30T15:43:34.141Z,2.50
2023-04-30T15:46:02.761Z,4.90
2023-04-30T15:48:30.682Z,3.00
2023-04-30T15:50:58.082Z,1.80
2023-04-30T15:53:26.579Z,2.00
2023-04-30T15:55:56.635Z,3.20
2023-04-30T15:58:23.854Z,1.80
2023-04-30T16:00:53.704Z,1.10
2023-04-30T16:03:22.343Z,2.30
2023-04-30T16:05:50.167Z,2.60
2023-04-30T16:08:17.308Z,4.60
2023-04-30T16:10:47.172Z,2.90
2023-04-30T16:13:16.952Z,2.40
2023-04-30T16:15:45.180Z,2.30
2023-04-30T16:18:12.229Z,1.60
2023-04-30T16:20:41.354Z,2.30
2023-04-30T16:23:08.576Z,3.30
2023-04-30T16:25:36.428Z,1.80
2023-04-30T16:28:04.285Z,1.70
2023-04-30T16:30:33.441Z,2.60
2023-04-30T16:33:01.220Z,3.10
2023-04-30T16:35:30.821Z,2.40
2023-04-30T16:37:58.139Z,2.90
2023-04-30T16:40:25.653Z,2.70
2023-04-30T16:42:52.753Z,3.70
2023-04-30T16:45:20.341Z,2.90
2023-04-30T16:47:48.220Z,2.40
2023-04-30T16:50:15.889Z,1.90
2023-04-30T16:52:43.839Z,2.00
2023-04-30T16:55:11.729Z,2.90
2023-04-30T16:57:38.822Z,3.20
2023-04-30T17:00:12.662Z,3.30
2023-04-30T17:02:41.924Z,2.90
2023-04-30T17:05:10.887Z,1.60
2023-04-30T17:07:37.854Z,3.20
2023-04-30T17:10:07.229Z,2.50
2023-04-30T17:12:36.612Z,3.30
2023-04-30T17:15:04.634Z,2.60
2023-04-30T17:17:32.974Z,1.40
2023-04-30T17:20:00.413Z,2.10
2023-04-30T17:22:27.958Z,2.80
2023-04-30T17:24:58.958Z,1.30
2023-04-30T17:27:27.249Z,2.30
2023-04-30T17:29:55.235Z,4.70
2023-04-30T17:32:22.571Z,2.50
2023-04-30T17:34:51.248Z,3.00
2023-04-30T17:37:19.748Z,2.90
2023-04-30T17:39:47.714Z,2.40
2023-04-30T17:42:19.274Z,2.30
2023-04-30T17:44:48.321Z,1.70
2023-04-30T17:47:18.743Z,2.60
2023-04-30T17:49:47.240Z,1.40
2023-04-30T17:52:14.920Z,1.90
2023-04-30T17:54:43.939Z,2.30
2023-04-30T17:57:11.066Z,1.40
2023-04-30T17:59:40.452Z,1.50
2023-04-30T18:02:09.301Z,1.30
2023-04-30T18:04:37.246Z,1.10
2023-04-30T18:07:04.510Z,0.90
2023-04-30T18:09:32.416Z,1.00
2023-04-30T18:12:00.392Z,0.90
2023-04-30T18:14:28.492Z,1.20
2023-04-30T18:16:56.156Z,1.00
2023-04-30T18:19:27.524Z,6.30
2023-04-30T18:21:56.215Z,1.10
2023-04-30T18:24:27.372Z,1.10
2023-04-30T18:26:56.286Z,1.20
2023-04-30T18:29:24.228Z,1.50
2023-04-30T18:31:51.939Z,1.20
2023-04-30T18:34:20.245Z,1.00
2023-04-30T18:36:47.251Z,0.90
2023-04-30T18:39:15.675Z,1.50
2023-04-30T18:41:44.155Z,3.10
2023-04-30T18:44:13.103Z,1.00
2023-04-30T18:46:43.142Z,1.40
2023-04-30T18:49:11.542Z,1.30
2023-04-30T18:51:39.646Z,1.60
2023-04-30T18:54:09.149Z,1.80
2023-04-30T18:56:38.634Z,1.00
2023-04-30T18:59:06.265Z,1.70
2023-04-30T19:01:33.780Z,1.50
2023-04-30T19:04:02.859Z,1.70
2023-04-30T19:06:32.917Z,2.00
2023-04-30T19:09:00.430Z,1.30
2023-04-30T19:11:28.779Z,2.70
2023-04-30T19:13:58.623Z,2.80
2023-04-30T19:16:27.030Z,2.20
2023-04-30T19:18:54.717Z,1.60
2023-04-30T19:21:23.027Z,3.00
2023-04-30T19:23:50.865Z,2.70
2023-04-30T19:26:18.133Z,2.00
2023-04-30T19:28:47.850Z,2.00
2023-04-30T19:33:42.915Z,6.30
2023-04-30T19:36:10.037Z,1.80
2023-04-30T19:38:37.181Z,2.30
2023-04-30T19:41:04.192Z,1.60
2023-04-30T19:43:31.958Z,1.20
2023-04-30T19:46:01.940Z,1.20
2023-04-30T19:48:30.900Z,0.50
2023-04-30T19:50:58.236Z,0.70
2023-04-30T19:53:25.907Z,0.80
2023-04-30T19:55:54.806Z,0.90
2023-04-30T19:58:22.008Z,1.50
2023-04-30T20:00:49.047Z,1.10
2023-04-30T20:03:16.819Z,1.40
2023-04-30T20:05:44.441Z,11.20
2023-04-30T20:08:11.870Z,2.00
2023-04-30T20:10:40.575Z,2.70
2023-04-30T20:13:08.771Z,0.90
2023-04-30T20:15:38.726Z,3.00
2023-04-30T20:18:05.882Z,0.60
2023-04-30T20:20:33.255Z,1.70
2023-04-30T20:23:14.258Z,0.60
2023-04-30T20:26:02.950Z,1.90
2023-04-30T20:28:31.034Z,1.70
2023-04-30T20:30:58.192Z,1.00
2023-04-30T20:33:26.717Z,0.80
2023-04-30T20:35:54.956Z,1.10
2023-04-30T20:38:22.215Z,1.30
2023-04-30T20:40:51.824Z,2.20
2023-04-30T20:43:19.481Z,1.20
2023-04-30T20:45:47.151Z,1.30
2023-04-30T20:48:14.837Z,0.90
2023-04-30T20:50:43.198Z,5.50
2023-04-30T20:53:12.000Z,2.50
2023-04-30T20:55:39.135Z,1.50
2023-04-30T20:58:08.350Z,2.10
2023-04-30T21:00:35.795Z,0.90
2023-04-30T21:03:04.125Z,2.20
2023-04-30T21:05:31.941Z,2.30
2023-04-30T21:08:00.726Z,2.10
2023-04-30T21:10:36.951Z,3.10
2023-04-30T21:13:04.649Z,2.40
2023-04-30T21:15:33.568Z,1.60
2023-04-30T21:18:01.062Z,0.90
2023-04-30T21:20:30.704Z,1.30
2023-04-30T21:22:58.684Z,1.90
2023-04-30T21:25:26.250Z,2.90
2023-04-30T21:27:54.335Z,1.20
2023-04-30T21:30:26.032Z,1.40
2023-04-30T21:32:57.548Z,1.00
2023-04-30T21:35:24.980Z,1.30
2023-04-30T21:37:56.744Z,0.70
2023-04-30T21:40:24.164Z,0.70
2023-04-30T21:42:53.500Z,0.70
2023-04-30T21:45:22.097Z,0.30
2023-04-30T21:47:49.235Z,1.60
2023-04-30T21:50:16.479Z,0.90
2023-04-30T21:52:44.424Z,1.40
2023-04-30T21:55:12.089Z,0.60
2023-04-30T21:57:39.135Z,1.70
2023-04-30T22:00:08.632Z,0.70
2023-04-30T22:02:39.018Z,0.80
2023-04-30T22:05:10.929Z,1.00
2023-04-30T22:07:39.454Z,68.90
2023-04-30T22:10:07.166Z,25.80
2023-04-30T22:12:35.127Z,3.60
2023-04-30T22:15:02.496Z,1.40
2023-04-30T22:17:32.100Z,1.00
2023-04-30T22:19:59.087Z,0.90
2023-04-30T22:22:26.514Z,0.90
2023-04-30T22:24:53.413Z,0.60
2023-04-30T22:27:21.109Z,1.00
2023-04-30T22:29:50.058Z,0.70
2023-04-30T22:32:18.872Z,1.90
2023-04-30T22:34:46.884Z,2.10
2023-04-30T22:37:14.402Z,0.90
2023-04-30T22:39:41.933Z,1.70
2023-04-30T22:42:09.607Z,1.10
2023-04-30T22:44:39.338Z,0.60
2023-04-30T22:47:06.470Z,1.80
2023-04-30T22:49:38.263Z,1.50
2023-04-30T22:52:06.767Z,1.00
2023-04-30T22:54:36.238Z,1.30
2023-04-30T22:57:03.310Z,0.60
2023-04-30T22:59:30.223Z,1.30
2023-04-30T23:01:57.701Z,0.80
2023-04-30T23:04:26.842Z,0.90
2023-04-30T23:06:54.473Z,0.60
2023-04-30T23:09:21.765Z,1.30
2023-04-30T23:11:48.601Z,1.10
2023-04-30T23:14:16.124Z,0.60
2023-04-30T23:16:45.013Z,0.80
2023-04-30T23:19:12.284Z,0.80
2023-04-30T23:21:39.748Z,0.80
2023-04-30T23:24:07.244Z,1.90
2023-04-30T23:26:34.497Z,0.90
2023-04-30T23:29:02.265Z,0.70
2023-04-30T23:31:31.374Z,1.10
2023-04-30T23:33:58.895Z,1.40
2023-04-30T23:36:26.286Z,1.00
2023-04-30T23:38:53.166Z,1.00
2023-04-30T23:41:20.381Z,0.80
2023-04-30T23:43:47.942Z,0.70
2023-04-30T23:46:16.012Z,2.80
2023-04-30T23:48:43.317Z,0.60
2023-04-30T23:51:10.939Z,0.90
2023-04-30T23:53:38.302Z,1.00
2023-04-30T23:56:06.651Z,1.50
2023-04-30T23:58:33.709Z,1.20
